Time;durP1;ratioP1;P1;durP2;ratioP2;P2;SDS_P1;SDS_P2;PMS_P1;PMS_P2;Temp;Humidity;BMP_temperature;BMP_pressure;BME280_temperature;BME280_humidity;BME280_pressure;Samples;Min_cycle;Max_cycle;Signal;HPM_P1;HPM_P2
2022/02/19 00:02:42;;;;;;;112.20;35.05;;;;;;;4.72;88.99;92259.06;4964456;28;20055;-89
2022/02/19 00:05:26;;;;;;;;;;;;;;;;;;;;;
2022/02/19 00:08:08;;;;;;;101.35;32.00;;;;;;;4.98;88.69;92295.44;4967863;28;20487;-89
2022/02/19 00:10:47;;;;;;;95.00;31.75;;;;;;;5.16;88.40;92325.34;4979268;28;20038;-90
2022/02/19 00:13:36;;;;;;;108.70;33.05;;;;;;;4.87;88.52;92262.75;4961985;28;20042;-89
2022/02/19 00:16:30;;;;;;;110.40;34.85;;;;;;;4.76;89.40;92252.34;4980745;28;20047;-90
2022/02/19 00:19:24;;;;;;;110.13;32.35;;;;;;;4.96;89.26;92281.97;4978697;28;20592;-89
2022/02/19 00:22:05;;;;;;;;;;;;;;;;;;;;;
2022/02/19 00:24:55;;;;;;;100.18;32.65;;;;;;;4.83;89.23;92259.09;4963084;28;20041;-90
2022/02/19 00:27:57;;;;;;;100.57;30.35;;;;;;;5.19;89.26;92322.22;4976312;28;20046;-90
2022/02/19 00:30:43;;;;;;;89.03;27.10;;;;;;;4.86;88.74;92269.72;4959295;28;20054;-90
2022/02/19 00:33:23;;;;;;;92.18;30.73;;;;;;;4.78;88.65;92255.44;4976401;28;20145;-89
2022/02/19 00:35:57;;;;;;;90.75;30.88;;;;;;;5.10;88.60;92303.00;4976234;28;20038;-90
2022/02/19 00:38:30;;;;;;;95.38;31.67;;;;;;;5.26;88.75;92324.56;4960777;28;20057;-90
2022/02/19 00:41:28;;;;;;;100.18;32.40;;;;;;;4.85;89.27;92254.44;4975161;28;20513;-90
2022/02/19 00:44:17;;;;;;;103.07;33.45;;;;;;;5.11;89.12;92283.78;4996864;28;20036;-89
2022/02/19 00:47:12;;;;;;;102.30;35.45;;;;;;;4.84;88.83;92247.66;4965109;28;20084;-89
2022/02/19 00:49:50;;;;;;;137.25;37.13;;;;;;;5.09;88.43;92294.44;4979372;28;20037;-89
2022/02/19 00:52:34;;;;;;;135.77;38.67;;;;;;;5.13;88.07;92300.66;4980896;28;20088;-89
2022/02/19 00:55:30;;;;;;;;;;;;;;;;;;;;;
2022/02/19 00:58:34;;;;;;;117.95;34.80;;;;;;;4.61;87.52;92234.13;4983198;28;20034;-89
2022/02/19 01:01:23;;;;;;;117.22;35.70;;;;;;;5.02;87.00;92283.50;4997380;28;20053;-88
2022/02/19 01:04:25;;;;;;;111.57;33.85;;;;;;;4.82;88.30;92255.72;4994772;28;20577;-90
2022/02/19 01:07:21;;;;;;;126.50;37.00;;;;;;;4.66;87.81;92234.16;4993770;28;20049;-89
2022/02/19 01:10:22;;;;;;;125.45;33.42;;;;;;;4.87;87.34;92267.94;4978551;28;20038;-89
2022/02/19 01:12:54;;;;;;;122.68;34.72;;;;;;;4.84;87.61;92268.41;4962268;28;20050;-89
2022/02/19 01:15:47;;;;;;;;;;;;;;;;;;;;;
2022/02/19 01:18:28;;;;;;;105.97;33.20;;;;;;;4.80;86.85;92265.56;4977769;28;20112;-89
2022/02/19 01:21:28;;;;;;;;;;;;;;;;;;;;;
2022/02/19 01:24:20;;;;;;;;;;;;;;;;;;;;;
2022/02/19 01:26:59;;;;;;;84.28;27.48;;;;;;;4.95;84.20;92238.88;4963322;28;20077;-91
2022/02/19 01:29:43;;;;;;;;;;;;;;;;;;;;;
2022/02/19 01:32:28;;;;;;;73.93;24.95;;;;;;;4.92;82.42;92221.25;4975608;28;20100;-89
2022/02/19 01:35:15;;;;;;;81.80;25.42;;;;;;;4.81;80.98;92202.28;4960942;28;20074;-91
2022/02/19 01:38:03;;;;;;;70.63;22.70;;;;;;;4.76;80.62;92195.28;4960641;28;20065;-89
2022/02/19 01:41:04;;;;;;;;;;;;;;;;;;;;;
2022/02/19 01:43:39;;;;;;;75.40;22.35;;;;;;;4.86;79.98;92176.34;4975024;28;20468;-90
2022/02/19 01:46:26;;;;;;;;;;;;;;;;;;;;;
2022/02/19 01:49:06;;;;;;;68.20;24.80;;;;;;;4.90;80.37;92184.41;4975795;28;20046;-90
2022/02/19 01:51:46;;;;;;;77.78;24.13;;;;;;;4.89;80.19;92182.88;4961484;28;20101;-89
2022/02/19 01:54:33;;;;;;;;;;;;;;;5.30;80.10;92237.38;4959941;28;20050;-89
2022/02/19 01:57:32;;;;;;;76.00;23.80;;;;;;;5.14;80.57;92208.81;4983968;28;19972;-89
2022/02/19 02:00:20;;;;;;;64.47;22.33;;;;;;;5.15;80.32;92212.94;4990676;28;20049;-89
2022/02/19 02:03:00;;;;;;;65.30;21.98;;;;;;;4.86;80.58;92160.78;4993721;28;20141;-88
2022/02/19 02:05:50;;;;;;;66.53;22.33;;;;;;;4.88;80.30;92165.72;4980769;28;20045;-90
2022/02/19 02:08:48;;;;;;;64.10;22.85;;;;;;;4.86;80.38;92158.19;4996893;28;20034;-89
2022/02/19 02:11:45;;;;;;;63.03;21.45;;;;;;;4.86;80.81;92160.78;4990804;28;20050;-89
2022/02/19 02:14:52;;;;;;;60.90;22.10;;;;;;;4.89;81.05;92162.88;4998115;28;20046;-89
2022/02/19 02:17:38;;;;;;;64.28;20.98;;;;;;;4.91;81.14;92160.00;4993803;28;20039;-88
2022/02/19 02:20:14;;;;;;;60.47;19.38;;;;;;;5.03;81.11;92176.13;4979159;28;20091;-89
2022/02/19 02:23:31;;;;;;;;;;;;;;;;;;;;;
2022/02/19 02:26:14;;;;;;;60.72;17.85;;;;;;;4.92;80.50;92139.00;4995516;28;20038;-89
2022/02/19 02:28:44;;;;;;;50.13;18.05;;;;;;;4.91;80.39;92136.66;4995067;28;20042;-91
2022/02/19 02:31:26;;;;;;;57.65;20.02;;;;;;;5.07;80.75;92166.78;4980321;28;20041;-89
2022/02/19 02:34:22;;;;;;;52.30;19.70;;;;;;;5.13;80.85;92173.50;4996321;28;20096;-89
2022/02/19 02:37:13;;;;;;;50.15;17.98;;;;;;;4.90;80.61;92132.53;4982112;28;20026;-89
2022/02/19 02:40:04;;;;;;;;;;;;;;;;;;;;;
2022/02/19 02:42:33;;;;;;;59.45;18.63;;;;;;;4.81;80.59;92129.66;4998218;28;20096;-89
2022/02/19 02:45:35;;;;;;;53.50;17.77;;;;;;;4.76;80.64;92114.88;4998222;28;20038;-89
2022/02/19 02:48:48;;;;;;;;;;;;;;;;;;;;;
2022/02/19 02:51:34;;;;;;;49.33;16.60;;;;;;;4.75;80.58;92126.31;4988805;28;20043;-89
2022/02/19 02:54:17;;;;;;;45.10;16.15;;;;;;;4.80;80.93;92139.28;4972005;28;20057;-90
2022/02/19 02:57:19;;;;;;;;;;;;;;;;;;;;;
2022/02/19 02:59:54;;;;;;;35.53;13.48;;;;;;;4.70;80.51;92108.13;4974757;28;20140;-89
2022/02/19 03:02:59;;;;;;;27.70;11.55;;;;;;;5.15;80.85;92163.66;4979667;28;20062;-89
2022/02/19 03:05:41;;;;;;;27.63;10.07;;;;;;;5.19;81.14;92169.09;4961682;28;20048;-90
2022/02/19 03:08:41;;;;;;;24.67;8.95;;;;;;;4.82;81.66;92117.47;4956522;28;20046;-89
2022/02/19 03:11:39;;;;;;;28.10;10.50;;;;;;;4.95;81.89;92130.72;4968201;28;20439;-89
2022/02/19 03:14:35;;;;;;;40.05;11.95;;;;;;;5.28;81.46;92182.34;4949558;28;20121;-89
2022/02/19 03:17:11;;;;;;;26.67;10.35;;;;;;;4.87;81.26;92120.88;4964805;28;20514;-89
2022/02/19 03:19:49;;;;;;;31.00;12.73;;;;;;;5.19;81.26;92156.13;4980958;28;20038;-89
2022/02/19 03:22:25;;;;;;;;;;;;;;;;;;;;;
2022/02/19 03:25:29;;;;;;;31.17;10.40;;;;;;;5.05;81.31;92132.53;4997627;28;20044;-89
2022/02/19 03:28:06;;;;;;;28.60;10.18;;;;;;;4.98;81.49;92130.19;4981898;28;20038;-89
2022/02/19 03:30:43;;;;;;;33.88;10.73;;;;;;;4.91;82.01;92121.91;4965490;28;20056;-89
2022/02/19 03:34:14;;;;;;;;;;;;;;;;;;;;;
2022/02/19 03:37:00;;;;;;;28.55;10.38;;;;;;;4.93;82.19;92134.59;4995140;28;20042;-90
2022/02/19 03:40:09;;;;;;;;;;;;;;;;;;;;;
2022/02/19 03:43:04;;;;;;;56.42;20.63;;;;;;;5.11;83.92;92165.22;4980123;28;20049;-90
2022/02/19 03:46:02;;;;;;;;;;;;;;;;;;;;;
2022/02/19 03:48:49;;;;;;;41.38;15.40;;;;;;;4.99;83.97;92149.13;4994298;28;20058;-90
2022/02/19 03:51:28;;;;;;;31.25;12.20;;;;;;;5.13;83.57;92181.28;4977299;28;20030;-89
2022/02/19 03:54:11;;;;;;;27.98;11.38;;;;;;;5.11;83.25;92186.00;4994236;28;20426;-89
2022/02/19 03:56:53;;;;;;;32.50;12.45;;;;;;;5.00;83.03;92161.06;4961727;28;20134;-89
2022/02/19 03:59:56;;;;;;;;;;;;;;;;;;;;;
2022/02/19 04:02:30;;;;;;;21.92;9.90;;;;;;;4.87;83.10;92152.00;4978500;28;20060;-89
2022/02/19 04:05:09;;;;;;;31.05;12.85;;;;;;;4.92;82.72;92161.59;4961521;28;20100;-90
2022/02/19 04:07:47;;;;;;;29.55;13.00;;;;;;;4.91;82.77;92162.59;4961821;28;20056;-89
2022/02/19 04:10:23;;;;;;;39.60;17.08;;;;;;;5.03;83.47;92181.31;4977118;28;20054;-90
2022/02/19 04:13:05;;;;;;;43.85;13.88;;;;;;;4.94;83.06;92164.69;4960962;28;20096;-89
2022/02/19 04:16:24;;;;;;;32.42;12.73;;;;;;;5.32;83.27;92224.91;4976843;28;20050;-89
2022/02/19 04:19:32;;;;;;;32.58;12.73;;;;;;;4.88;83.51;92163.13;4965263;28;20538;-90
2022/02/19 04:22:02;;;;;;;34.30;14.77;;;;;;;4.92;83.65;92177.16;4946313;28;20042;-89
2022/02/19 04:24:34;;;;;;;40.28;13.63;;;;;;;4.83;83.50;92163.13;4960902;28;20046;-90
2022/02/19 04:30:23;;;;;;;35.90;14.82;;;;;;;4.83;84.17;92169.09;4983140;28;20137;-89
2022/02/19 04:32:58;;;;;;;47.58;16.10;;;;;;;5.03;83.96;92206.47;4979450;28;20103;-90
2022/02/19 04:35:39;;;;;;;40.42;15.25;;;;;;;5.02;84.34;92210.88;4964716;28;20495;-89
2022/02/19 04:38:33;;;;;;;;;;;;;;;;;;;;;
2022/02/19 04:41:32;;;;;;;38.80;14.98;;;;;;;4.80;83.90;92173.00;4995770;28;20088;-90
2022/02/19 04:44:41;;;;;;;36.42;15.35;;;;;;;4.92;84.41;92192.72;4997574;28;20053;-89
2022/02/19 04:47:44;;;;;;;34.90;14.60;;;;;;;4.97;84.15;92201.25;4991480;28;20050;-89
2022/02/19 04:50:27;;;;;;;35.72;14.50;;;;;;;5.11;84.28;92211.94;4994888;28;20045;-90
2022/02/19 04:53:05;;;;;;;;;;;;;;;;;;;;;
2022/02/19 04:56:13;;;;;;;;;;;;;;;;;;;;;
2022/02/19 04:59:15;;;;;;;46.78;15.90;;;;;;;5.05;84.39;92201.81;4980319;28;20125;-89
2022/02/19 05:04:54;;;;;;;32.42;13.25;;;;;;;4.79;84.19;92173.22;4955448;28;20050;-89
2022/02/19 05:08:02;;;;;;;32.53;12.77;;;;;;;5.11;84.45;92214.53;4961491;28;20097;-89
2022/02/19 05:10:39;;;;;;;32.03;12.68;;;;;;;4.81;84.64;92163.38;4947847;28;20058;-89
2022/02/19 05:13:20;;;;;;;;;;;;;;;;;;;;;
2022/02/19 05:19:03;;;;;;;34.42;13.63;;;;;;;4.80;84.77;92175.59;4998764;28;20046;-90
2022/02/19 05:21:54;;;;;;;30.25;13.55;;;;;;;5.10;84.91;92220.75;4979549;28;20034;-89
2022/02/19 05:25:06;;;;;;;;;;;;;;;;;;;;;
2022/02/19 05:27:53;;;;;;;33.58;14.82;;;;;;;4.81;84.51;92176.34;4977203;28;21577;-89
2022/02/19 05:30:28;;;;;;;35.08;14.23;;;;;;;4.84;84.58;92181.03;4978583;28;20161;-89
2022/02/19 05:33:25;;;;;;;34.55;14.52;;;;;;;5.22;84.13;92251.63;4966192;28;20050;-89
2022/02/19 05:36:16;;;;;;;;;;;;;;;;;;;;;
2022/02/19 05:39:07;;;;;;;35.15;14.02;;;;;;;4.99;83.45;92193.22;4993503;28;20092;-89
2022/02/19 05:42:21;;;;;;;30.58;14.30;;;;;;;5.29;84.16;92241.00;4989770;28;20037;-89
2022/02/19 05:45:26;;;;;;;;;;;;;;;;;;;;;
2022/02/19 05:51:45;;;;;;;33.67;13.25;;;;;;;4.86;83.30;92183.34;4970660;28;20101;-87
2022/02/19 05:54:44;;;;;;;;;;;;;;;;;;;;;
2022/02/19 05:57:23;;;;;;;33.63;14.32;;;;;;;4.95;82.01;92192.97;4981168;28;20069;-87
2022/02/19 05:59:54;;;;;;;34.72;14.10;;;;;;;4.88;82.25;92186.47;4992786;28;20050;-89
2022/02/19 06:02:37;;;;;;;;;;;;;;;;;;;;;
2022/02/19 06:05:24;;;;;;;;;;;;;;;;;;;;;
2022/02/19 06:08:34;;;;;;;;;;;;;;;;;;;;;
2022/02/19 06:11:17;;;;;;;37.50;19.63;;;;;;;4.74;82.64;92183.59;4996337;28;20498;-90
2022/02/19 06:14:01;;;;;;;32.17;14.27;;;;;;;4.98;83.10;92231.38;5001476;28;20048;-88
2022/02/19 06:16:33;;;;;;;29.02;12.68;;;;;;;5.12;82.90;92259.41;4965373;28;20042;-89
2022/02/19 06:19:04;;;;;;;29.67;13.55;;;;;;;4.90;83.11;92226.69;4976257;28;20048;-90
2022/02/19 06:21:30;;;;;;;33.03;13.70;;;;;;;4.94;83.30;92234.75;4963270;28;20089;-88
2022/02/19 06:24:07;;;;;;;27.08;12.93;;;;;;;5.03;82.61;92253.94;4984118;28;20034;-88
2022/02/19 06:26:50;;;;;;;25.35;12.65;;;;;;;4.86;82.30;92224.84;4991293;28;20044;-88
2022/02/19 06:29:52;;;;;;;27.95;13.07;;;;;;;4.99;82.29;92253.66;4983533;28;20112;-89
2022/02/19 06:32:45;;;;;;;;;;;;;;;;;;;;;
2022/02/19 06:36:07;;;;;;;31.55;13.85;;;;;;;4.48;81.86;92177.59;5001518;28;20840;-88
2022/02/19 06:38:56;;;;;;;31.92;14.15;;;;;;;4.50;81.86;92185.88;4999624;28;20044;-88
2022/02/19 06:45:09;;;;;;;;;;;;;;;;;;;;;
2022/02/19 06:48:06;;;;;;;26.10;9.93;;;;;;;4.97;80.13;92252.38;4973105;28;20050;-88
2022/02/19 06:50:52;;;;;;;22.17;9.70;;;;;;;5.03;77.33;92240.97;5000786;28;20132;-88
2022/02/19 06:57:00;;;;;;;13.38;5.97;;;;;;;5.39;72.95;92269.56;4979466;28;20060;-88
2022/02/19 06:59:39;;;;;;;11.77;6.03;;;;;;;5.41;73.22;92275.28;4966344;28;20076;-88
2022/02/19 07:02:21;;;;;;;12.40;5.82;;;;;;;5.20;71.86;92228.53;4981920;28;20053;-87
2022/02/19 07:04:58;;;;;;;15.40;6.38;;;;;;;5.29;72.03;92228.00;4966921;28;20047;-88
2022/02/19 07:08:24;;;;;;;24.02;10.68;;;;;;;5.71;75.96;92302.28;4959884;28;20046;-88
2022/02/19 07:11:04;;;;;;;27.25;10.43;;;;;;;5.38;75.75;92249.81;4996718;28;20361;-88
2022/02/19 07:13:55;;;;;;;;;;;;;;;;;;;;;
2022/02/19 07:16:35;;;;;;;24.27;9.38;;;;;;;5.38;75.34;92252.41;4997090;28;20073;-87
2022/02/19 07:19:14;;;;;;;14.48;7.15;;;;;;;5.54;74.75;92277.34;4983550;28;20037;-88
2022/02/19 07:22:28;;;;;;;17.08;7.63;;;;;;;5.62;73.74;92281.25;4996077;28;20034;-89
2022/02/19 07:25:11;;;;;;;;;;;;;;;;;;;;;
2022/02/19 07:27:54;;;;;;;15.02;7.20;;;;;;;5.45;73.38;92260.75;4983290;28;20046;-87
2022/02/19 07:30:54;;;;;;;17.45;8.50;;;;;;;5.51;73.49;92280.44;4996314;28;20223;-88
2022/02/19 07:36:43;;;;;;;17.83;8.68;;;;;;;5.66;73.97;92282.28;5004370;28;20037;-88
2022/02/19 07:39:21;;;;;;;19.92;9.23;;;;;;;5.78;72.70;92289.81;5013215;28;20069;-88
2022/02/19 07:42:09;;;;;;;20.98;9.25;;;;;;;5.86;72.53;92278.91;4997959;28;20042;-87
2022/02/19 07:45:26;;;;;;;20.10;8.60;;;;;;;6.07;71.94;92279.66;5002027;28;20044;-88
2022/02/19 07:48:31;;;;;;;20.05;8.43;;;;;;;6.12;71.83;92282.25;4994523;28;20233;-88
2022/02/19 08:29:13;;;;;;;17.25;7.93;;;;;;;9.89;62.38;92358.66;4927703;29;20068;-93
2022/02/19 08:36:11;;;;;;;;;;;;;;;;;;;;;
2022/02/19 08:47:11;;;;;;;9.52;3.72;;;;;;;11.88;49.24;92375.22;4874266;29;20225;-88
2022/02/19 08:50:03;;;;;;;;;;;;;;;;;;;;;
2022/02/19 08:55:45;;;;;;;25.13;10.82;;;;;;;10.57;51.01;92311.00;4985647;28;20051;-87
2022/02/19 08:58:14;;;;;;;26.23;12.73;;;;;;;11.26;50.97;92373.09;4956446;28;20042;-87
2022/02/19 09:00:54;;;;;;;39.85;18.17;;;;;;;10.96;56.80;92333.31;4957984;28;20045;-87
2022/02/19 09:03:50;;;;;;;45.75;21.45;;;;;;;10.61;58.99;92348.63;4977003;28;20065;-87
2022/02/19 09:06:43;;;;;;;;;;;;;;;10.97;53.81;92378.63;4977074;28;20038;-89
2022/02/19 09:09:39;;;;;;;;;;;;;;;;;;;;;
2022/02/19 09:12:08;;;;;;;28.15;12.63;;;;;;;12.00;51.69;92358.97;4977554;28;20133;-87
2022/02/19 09:14:57;;;;;;;33.60;16.83;;;;;;;10.90;56.40;92317.97;4975675;28;20073;-88
2022/02/19 09:17:53;;;;;;;;;;;;;;;;;;;;;
2022/02/19 09:20:27;;;;;;;40.15;19.95;;;;;;;10.59;56.16;92355.97;4975540;28;20034;-87
2022/02/19 09:22:58;;;;;;;39.00;19.50;;;;;;;10.56;57.37;92333.00;4997634;28;20041;-87
2022/02/19 09:25:41;;;;;;;39.83;19.83;;;;;;;11.52;55.75;92377.81;4996623;28;20052;-89
2022/02/19 09:28:20;;;;;;;;;;;;;;;;;;;;;
2022/02/19 09:30:59;;;;;;;24.42;11.73;;;;;;;10.98;47.94;92339.03;4993408;28;20107;-87
2022/02/19 09:33:47;;;;;;;18.35;10.10;;;;;;;10.51;49.97;92338.31;5010809;28;20041;-88
2022/02/19 09:36:25;;;;;;;13.65;6.93;;;;;;;10.99;46.30;92326.72;4995045;28;20412;-87
2022/02/19 09:38:58;;;;;;;24.63;12.70;;;;;;;11.58;46.89;92337.31;4977277;28;20101;-87
2022/02/19 09:41:27;;;;;;;18.15;8.80;;;;;;;11.78;45.37;92351.84;4996584;28;20057;-88
2022/02/19 09:44:13;;;;;;;19.48;9.15;;;;;;;11.81;46.71;92325.00;5012808;28;20120;-88
2022/02/19 09:50:45;;;;;;;9.38;5.15;;;;;;;12.70;41.36;92389.09;5006224;28;20141;-88
2022/02/19 09:53:21;;;;;;;11.70;5.43;;;;;;;13.39;39.85;92400.97;4987568;28;20038;-89
2022/02/19 09:56:29;;;;;;;;;;;;;;;;;;;;;
2022/02/19 09:59:08;;;;;;;14.93;7.25;;;;;;;13.85;36.74;92371.53;4991716;28;20042;-88
2022/02/19 10:02:28;;;;;;;11.45;4.72;;;;;;;13.70;38.03;92382.50;4978789;28;20038;-89
2022/02/19 10:05:24;;;;;;;16.25;8.85;;;;;;;12.18;40.72;92349.38;4977044;28;20068;-88
2022/02/19 10:08:56;;;;;;;;;;;;;;;;;;;;;
2022/02/19 10:10:58;;;;;;;13.77;6.65;;;;;;;11.82;39.73;92376.38;4957833;28;20046;-90
2022/02/19 10:13:50;;;;;;;10.32;4.65;;;;;;;11.35;35.95;92354.81;4964464;28;20030;-88
2022/02/19 10:17:14;;;;;;;21.83;11.43;;;;;;;11.76;44.58;92409.81;4993949;28;20052;-88
2022/02/19 10:20:33;;;;;;;25.85;12.45;;;;;;;12.22;41.53;92418.56;4994852;28;20038;-89
2022/02/19 10:23:15;;;;;;;14.95;7.30;;;;;;;11.09;43.19;92349.31;4911034;28;20416;-88
2022/02/19 10:26:33;;;;;;;;;;;;;;;;;;;;;
2022/02/19 10:29:30;;;;;;;;;;;;;;;;;;;;;
2022/02/19 10:32:14;;;;;;;12.02;4.63;;;;;;;12.02;38.17;92352.38;4964458;28;20046;-87
2022/02/19 10:35:04;;;;;;;15.13;7.03;;;;;;;12.25;39.33;92381.22;4976137;28;20069;-88
2022/02/19 10:37:30;;;;;;;19.83;9.75;;;;;;;12.29;47.96;92409.22;4996505;28;20061;-88
2022/02/19 10:40:06;;;;;;;23.45;10.02;;;;;;;11.57;45.74;92390.81;5015928;28;20479;-88
2022/02/19 10:42:56;;;;;;;13.68;6.50;;;;;;;11.20;40.17;92353.28;5007428;28;20116;-87
2022/02/19 10:45:31;;;;;;;15.37;7.00;;;;;;;12.10;41.01;92369.22;5001401;28;20129;-88
2022/02/19 10:48:31;;;;;;;10.77;3.90;;;;;;;11.81;37.47;92336.25;4997791;28;20046;-87
2022/02/19 10:51:11;;;;;;;12.45;5.15;;;;;;;12.11;38.95;92389.13;4999235;28;20048;-88
2022/02/19 10:53:58;;;;;;;10.75;5.55;;;;;;;12.15;38.10;92397.97;4980511;28;20069;-89
2022/02/19 10:56:41;;;;;;;11.57;6.15;;;;;;;11.87;41.21;92344.81;4995250;28;20048;-88
2022/02/19 10:59:32;;;;;;;16.52;6.32;;;;;;;12.87;37.45;92422.53;4997773;28;20049;-88
2022/02/19 11:02:13;;;;;;;17.70;9.38;;;;;;;13.03;44.26;92397.41;5014605;28;20026;-88
2022/02/19 11:04:52;;;;;;;14.23;7.07;;;;;;;12.62;42.19;92364.31;4997130;28;20099;-90
2022/02/19 11:07:37;;;;;;;15.05;6.60;;;;;;;11.75;41.88;92358.41;4981817;28;20037;-89
2022/02/19 11:10:28;;;;;;;14.32;6.57;;;;;;;12.62;39.91;92421.31;4980195;28;20042;-88
2022/02/19 11:13:06;;;;;;;11.85;5.63;;;;;;;12.55;39.17;92374.47;4985346;28;20045;-89
2022/02/19 11:16:07;;;;;;;;;;;;;;;;;;;;;
2022/02/19 11:18:45;;;;;;;10.98;5.53;;;;;;;13.76;37.10;92394.41;4981020;28;20125;-90
2022/02/19 11:21:36;;;;;;;;;;;;;;;;;;;;;
2022/02/19 11:24:43;;;;;;;10.00;5.85;;;;;;;14.25;38.88;92376.66;5008528;28;20030;-91
2022/02/19 11:27:31;;;;;;;15.20;7.03;;;;;;;13.25;41.07;92340.59;4929042;28;20089;-89
2022/02/19 11:30:25;;;;;;;19.05;8.02;;;;;;;13.52;42.31;92358.78;4960244;28;20046;-89
2022/02/19 11:33:20;;;;;;;11.23;6.18;;;;;;;12.54;42.26;92390.50;4994090;28;20041;-89
2022/02/19 11:36:25;;;;;;;6.72;3.50;;;;;;;12.40;35.81;92343.34;5004117;28;20113;-91
2022/02/19 11:39:33;;;;;;;;;;;;;;;;;;;;;
2022/02/19 11:42:36;;;;;;;8.07;4.05;;;;;;;13.37;36.43;92367.09;4990168;28;20080;-90
2022/02/19 11:45:31;;;;;;;10.13;3.75;;;;;;;13.08;34.60;92323.72;4998191;28;20044;-89
2022/02/19 11:48:12;;;;;;;;;;;;;;;;;;;;;
2022/02/19 11:51:28;;;;;;;8.18;4.15;;;;;;;14.03;34.87;92387.34;4977533;28;20038;-89
2022/02/19 11:54:27;;;;;;;;;;;;;;;;;;;;;
2022/02/19 11:57:31;;;;;;;10.80;5.25;;;;;;;14.26;38.07;92327.38;5013191;28;20037;-91
2022/02/19 11:59:59;;;;;;;14.90;5.30;;;;;;;15.08;37.10;92349.19;4993531;28;20030;-90
2022/02/19 12:02:48;;;;;;;;;;;;;;;;;;;;;
2022/02/19 12:05:42;;;;;;;11.98;4.95;;;;;;;14.44;36.80;92328.91;4953935;28;20150;-89
2022/02/19 12:08:33;;;;;;;;;;;;;;;;;;;;;
2022/02/19 12:12:13;;;;;;;9.57;4.38;;;;;;;13.93;36.97;92370.72;4964703;28;20555;-89
2022/02/19 12:14:58;;;;;;;12.95;4.97;;;;;;;12.96;37.88;92373.44;4966856;28;20045;-89
2022/02/19 12:17:48;;;;;;;9.80;4.63;;;;;;;12.85;37.42;92304.59;4975860;28;20046;-89
2022/02/19 12:20:55;;;;;;;9.70;4.45;;;;;;;13.07;38.55;92361.56;4987074;28;20042;-90
2022/02/19 12:23:54;;;;;;;10.15;4.40;;;;;;;12.54;40.80;92315.16;4971862;28;20038;-90
2022/02/19 12:26:37;;;;;;;8.45;4.50;;;;;;;12.96;39.96;92318.25;4961852;28;20058;-89
2022/02/19 12:30:03;;;;;;;8.73;4.43;;;;;;;13.11;39.10;92343.34;4986378;28;20117;-89
2022/02/19 12:32:43;;;;;;;;;;;;;;;13.11;39.48;92364.38;4956285;28;20047;-88
2022/02/19 12:35:51;;;;;;;;;;;;;;;;;;;;;
2022/02/19 12:38:32;;;;;;;;;;;;;;;;;;;;;
2022/02/19 12:41:06;;;;;;;5.95;3.40;;;;;;;12.93;38.27;92289.97;4974860;28;20042;-90
2022/02/19 12:46:49;;;;;;;8.50;4.15;;;;;;;13.69;37.67;92294.91;4967792;28;20074;-89
2022/02/19 12:49:35;;;;;;;6.50;3.95;;;;;;;14.32;36.40;92326.91;4990567;28;20046;-89
2022/02/19 12:52:37;;;;;;;9.40;3.83;;;;;;;14.42;36.37;92296.06;4964145;28;20578;-90
2022/02/19 12:55:32;;;;;;;;;;;;;;;;;;;;;
2022/02/19 12:58:16;;;;;;;;;;;;;;;;;;;;;
2022/02/19 13:00:55;;;;;;;9.02;3.97;;;;;;;13.56;37.41;92316.09;4985081;28;20042;-88
2022/02/19 13:03:41;;;;;;;10.70;4.07;;;;;;;13.60;37.46;92291.50;5007560;28;20045;-88
2022/02/19 13:06:14;;;;;;;8.20;3.53;;;;;;;13.25;36.96;92290.66;4978533;28;20056;-87
2022/02/19 13:09:12;;;;;;;8.75;4.15;;;;;;;13.85;37.81;92307.59;4982804;28;20132;-87
2022/02/19 13:12:11;;;;;;;9.98;4.78;;;;;;;12.70;39.86;92324.19;5005860;28;20487;-86
2022/02/19 13:15:06;;;;;;;8.55;4.22;;;;;;;13.33;38.16;92334.63;4994286;28;20050;-88
2022/02/19 13:17:48;;;;;;;9.63;4.65;;;;;;;13.48;37.83;92278.94;5000706;28;20044;-89
2022/02/19 13:20:28;;;;;;;9.07;3.92;;;;;;;12.91;36.58;92277.13;5023861;28;20109;-88
2022/02/19 13:23:58;;;;;;;;;;;;;;;;;;;;;
2022/02/19 13:26:38;;;;;;;7.85;3.75;;;;;;;12.18;39.03;92302.13;4985806;28;20030;-90
2022/02/19 13:29:31;;;;;;;8.40;4.05;;;;;;;12.33;40.45;92272.13;4945647;28;20065;-87
2022/02/19 13:31:59;;;;;;;8.70;4.82;;;;;;;12.97;40.08;92330.31;4997922;28;20031;-87
2022/02/19 13:34:40;;;;;;;;;;;;;;;;;;;;;
2022/02/19 13:37:38;;;;;;;11.30;4.93;;;;;;;13.09;40.86;92277.94;5007489;28;20040;-88
2022/02/19 13:40:28;;;;;;;9.25;5.05;;;;;;;13.51;39.40;92325.69;4996317;28;20042;-88
2022/02/19 13:43:15;;;;;;;8.98;4.18;;;;;;;12.82;39.67;92288.69;4996493;28;20038;-87
2022/02/19 13:45:55;;;;;;;;;;;;;;;;;;;;;
2022/02/19 13:48:42;;;;;;;;;;;;;;;;;;;;;
2022/02/19 13:51:18;;;;;;;7.75;4.18;;;;;;;12.70;41.03;92294.53;4979698;28;20132;-87
2022/02/19 13:55:01;;;;;;;9.00;4.63;;;;;;;12.45;41.35;92295.94;4986797;28;20050;-87
2022/02/19 13:57:55;;;;;;;10.65;4.63;;;;;;;12.50;41.35;92288.72;4986219;28;20069;-87
2022/02/19 14:00:52;;;;;;;12.77;4.78;;;;;;;12.60;41.49;92319.19;4997896;28;20465;-88
2022/02/19 14:03:23;;;;;;;11.40;5.30;;;;;;;12.77;41.89;92333.50;4956710;28;20088;-87
2022/02/19 14:05:54;;;;;;;10.80;5.13;;;;;;;12.28;41.84;92283.53;4970529;28;20068;-89
2022/02/19 14:08:38;;;;;;;9.57;5.07;;;;;;;11.67;41.97;92275.25;4969351;28;20058;-87
2022/02/19 14:11:31;;;;;;;9.27;5.05;;;;;;;12.08;43.72;92322.28;4982891;28;20042;-88
2022/02/19 14:14:04;;;;;;;13.63;4.90;;;;;;;11.88;42.91;92293.91;4981800;28;20046;-87
2022/02/19 14:16:55;;;;;;;8.90;5.10;;;;;;;11.45;44.35;92334.41;4988832;28;20043;-86
2022/02/19 14:19:34;;;;;;;12.75;5.25;;;;;;;11.52;44.93;92302.56;4995797;28;20162;-86
2022/02/19 14:22:24;;;;;;;13.35;5.60;;;;;;;11.63;43.37;92305.75;4989952;28;20026;-87
2022/02/19 14:25:15;;;;;;;10.82;5.60;;;;;;;11.36;45.61;92367.63;4994563;28;20046;-87
2022/02/19 14:28:16;;;;;;;11.75;5.93;;;;;;;10.86;47.13;92351.06;4970425;28;20081;-86
2022/02/19 14:30:52;;;;;;;9.88;5.57;;;;;;;10.80;46.49;92303.25;4979110;28;20060;-87
2022/02/19 14:33:44;;;;;;;;;;;;;;;;;;;;;
2022/02/19 14:36:25;;;;;;;10.63;5.78;;;;;;;10.72;47.02;92306.56;5004282;28;20031;-89
2022/02/19 14:39:09;;;;;;;11.68;5.93;;;;;;;11.06;48.19;92365.63;4990803;28;20030;-87
2022/02/19 14:41:37;;;;;;;11.60;6.45;;;;;;;10.89;49.35;92332.91;4988831;28;20089;-87
2022/02/19 14:44:30;;;;;;;10.18;5.60;;;;;;;11.14;49.62;92344.75;4987954;28;20146;-88
2022/02/19 14:46:54;;;;;;;10.05;5.85;;;;;;;11.07;49.17;92325.25;5001450;28;20093;-88
2022/02/19 14:49:30;;;;;;;;;;;;;;;;;;;;;
2022/02/19 14:52:19;;;;;;;9.73;5.45;;;;;;;11.03;49.43;92332.91;5009816;28;20060;-88
2022/02/19 14:54:50;;;;;;;11.75;5.70;;;;;;;11.06;48.74;92337.59;4989608;28;20065;-89
2022/02/19 14:57:39;;;;;;;13.07;5.90;;;;;;;11.02;48.82;92342.63;4992629;28;20045;-86
2022/02/19 15:00:20;;;;;;;;;;;;;;;;;;;;;
2022/02/19 15:03:19;;;;;;;;;;;;;;;;;;;;;
2022/02/19 15:06:02;;;;;;;;;;;;;;;;;;;;;
2022/02/19 15:08:35;;;;;;;12.23;5.47;;;;;;;10.91;49.96;92375.31;4986543;28;20049;-87
2022/02/19 15:11:15;;;;;;;11.75;5.90;;;;;;;10.59;49.67;92342.91;4988520;28;20480;-88
2022/02/19 15:13:58;;;;;;;;;;;;;;;;;;;;;
2022/02/19 15:16:37;;;;;;;;;;;;;;;;;;;;;
2022/02/19 15:19:08;;;;;;;12.60;6.35;;;;;;;10.37;50.25;92350.59;4998915;28;20041;-87
2022/02/19 15:21:57;;;;;;;12.35;6.13;;;;;;;10.39;50.94;92357.09;5005706;28;20040;-91
2022/02/19 15:24:45;;;;;;;;;;;;;;;;;;;;;
2022/02/19 15:27:21;;;;;;;;;;;;;;;;;;;;;
2022/02/19 15:30:55;;;;;;;13.10;6.75;;;;;;;10.65;51.94;92401.19;5003233;28;20073;-89
2022/02/19 15:33:51;;;;;;;;;;;;;;;;;;;;;
2022/02/19 15:36:45;;;;;;;14.43;6.75;;;;;;;9.98;52.68;92338.66;4988246;28;20403;-88
2022/02/19 15:39:39;;;;;;;;;;;;;;;;;;;;;
2022/02/19 15:42:13;;;;;;;14.02;7.43;;;;;;;9.94;53.15;92346.28;4976320;28;20101;-88
2022/02/19 15:45:24;;;;;;;;;;;;;;;;;;;;;
2022/02/19 15:48:34;;;;;;;14.98;6.85;;;;;;;9.91;54.45;92361.78;4978805;28;20038;-87
2022/02/19 15:51:10;;;;;;;12.32;6.95;;;;;;;9.79;54.82;92342.06;4981611;28;20133;-87
2022/02/19 15:57:21;;;;;;;12.63;6.70;;;;;;;9.62;55.41;92343.63;4976668;28;20074;-87
2022/02/19 15:59:59;;;;;;;13.13;6.78;;;;;;;9.59;55.40;92345.75;4949740;28;20041;-88
2022/02/19 16:02:51;;;;;;;12.02;6.20;;;;;;;9.58;55.51;92343.41;4995361;28;20176;-87
2022/02/19 16:05:30;;;;;;;13.57;6.70;;;;;;;9.58;54.64;92346.03;4996806;28;20407;-87
2022/02/19 16:08:53;;;;;;;;;;;;;;;;;;;;;
2022/02/19 16:11:34;;;;;;;;;;;;;;;;;;;;;
2022/02/19 16:14:27;;;;;;;;;;;;;;;;;;;;;
2022/02/19 16:20:41;;;;;;;16.60;6.10;;;;;;;9.27;56.03;92346.44;5001529;28;20038;-88
2022/02/19 16:23:19;;;;;;;16.83;8.32;;;;;;;9.15;57.75;92356.50;4998293;28;20046;-87
2022/02/19 16:26:16;;;;;;;;;;;;;;;;;;;;;